No data was retrieved for https://query.yahooapis.com/v1/public/yql?q=select+%2A+from+weather.forecast+where+woeid%3D860853&format=xml&u=c



Visit our other weather sites:

Template documentation
and downloads

And another site



Nearby METAR Reports

   
EBAW - Antwerp
Updated: 20-09-2021 15:20
Few Clouds  
Few Clouds  
   Wind: NNE 3.6 m/s
Wind: NNE 3.6 m/s
Temperature: 18°C
Dew Point: 10°C
Humidity: 60%
Barometer: 1021 hPa
Clouds: Few Clouds
Visibility: More than 10 km
Cloud details: Few Clouds 3000 ft
EBAW 201320Z 03007KT 350V070 9999 FEW030 18/10 Q1021 NOSIG
EBLG - Liège
Updated: 20-09-2021 15:20
Few Clouds  
Few Clouds  
   Wind: North 3.6 m/s
Wind: North 3.6 m/s
Temperature: 17°C
Dew Point: 10°C
Humidity: 64%
Barometer: 1020 hPa
Clouds: Few Clouds
Visibility: More than 10 km
Cloud details: Few Clouds 2800 ft
EBLG 201320Z 01007KT 330V050 9999 FEW028 17/10 Q1020 NOSIG
EBCV - Mons/Bergen
Updated: 20-09-2021 14:55
Mostly Cloudy  
Mostly Cloudy  
   Wind: NNE 4.1 m/s
Wind: NNE 4.1 m/s
Temperature: 19°C
Dew Point: 12°C
Humidity: 64%
Barometer: 1020 hPa
Clouds: Mostly Cloudy
Visibility: More than 10 km
Cloud details: Few Clouds 3800 ft,
Partly Cloudy 6200 ft,
Mostly Cloudy 7600 ft
EBCV 201255Z AUTO 03008KT 9999 FEW038/// SCT062/// BKN076/// 19/12 Q1020 BLU
EHBK - Maastricht
Updated: 20-09-2021 15:25
Overcast  
Overcast  
   Wind: NNE 4.6 m/s
Wind: NNE 4.6 m/s
Temperature: 18°C
Dew Point: 10°C
Humidity: 60%
Barometer: 1020 hPa
Clouds: Overcast
Visibility: More than 10 km
Cloud details: Mostly Cloudy 3000 ft,
Overcast 3700 ft
EHBK 201325Z AUTO 03009KT 350V080 9999 BKN030 OVC037 18/10 Q1020 NOSIG
ELLX - Luxemburg
Updated: 20-09-2021 15:20
Partly Cloudy  
Partly Cloudy  
   Wind: NNE 3.6 m/s
Wind: NNE 3.6 m/s
Temperature: 18°C
Dew Point: 9°C
Humidity: 56%
Barometer: 1019 hPa
Clouds: Partly Cloudy
Visibility: More than 10 km
Cloud details: Few Clouds 3300 ft,
Partly Cloudy 5000 ft
ELLX 201320Z 02007KT 300V110 9999 FEW033TCU SCT050 18/09 Q1019 NOSIG
EBOS - Oostende
Updated: 20-09-2021 15:20
Clear  
Clear  
   Wind: NNE 5.1 m/s
Wind: NNE 5.1 m/s
Temperature: 18°C
Dew Point: 11°C
Humidity: 64%
Barometer: 1022 hPa
Visibility: More than 10 km
Cloud details: Clear
EBOS 201320Z 03010KT CAVOK 18/11 Q1022 NOSIG

Script developed by  Saratoga-weather.org Adapted for the template by  Weerstation Leuven

You find our weather info also at:

Weather Underground

Equipment we use:

Weather-station
Davis Vantage Vue

Weather-program
WeatherCat

Provider
one.com

Davis Vantage Vue

WeatherCat

one.com